createdAt,value
2022-11-09T00:07:33.794Z,3.48
2022-11-09T00:12:44.241Z,3.81
2022-11-09T00:15:10.627Z,4.13
2022-11-09T00:20:26.226Z,4.95
2022-11-09T00:22:52.609Z,5.91
2022-11-09T00:28:02.912Z,7.67
2022-11-09T00:33:12.884Z,6.91
2022-11-09T00:35:39.284Z,6.94
2022-11-09T00:40:55.866Z,6.40
2022-11-09T00:43:22.413Z,5.78
2022-11-09T00:45:48.934Z,5.90
2022-11-09T00:51:10.600Z,5.66
2022-11-09T00:53:36.994Z,5.28
2022-11-09T00:56:03.366Z,5.51
2022-11-09T00:58:29.744Z,5.14
2022-11-09T01:00:56.179Z,5.09
2022-11-09T01:03:22.618Z,4.96
2022-11-09T01:06:03.980Z,4.38
2022-11-09T01:08:30.368Z,4.40
2022-11-09T01:10:56.837Z,4.27
2022-11-09T01:16:06.980Z,5.48
2022-11-09T01:18:33.349Z,5.29
2022-11-09T01:20:59.736Z,5.59
2022-11-09T01:23:26.140Z,5.31
2022-11-09T01:25:52.517Z,5.62
2022-11-09T01:31:14.051Z,5.43
2022-11-09T01:33:40.432Z,5.41
2022-11-09T01:36:06.798Z,5.57
2022-11-09T01:38:33.173Z,5.74
2022-11-09T01:40:59.549Z,5.51
2022-11-09T01:46:09.551Z,5.75
2022-11-09T01:48:38.843Z,5.93
2022-11-09T01:51:05.279Z,6.49
2022-11-09T02:01:55.964Z,6.81
2022-11-09T02:04:22.449Z,6.94
2022-11-09T02:06:48.871Z,6.59
2022-11-09T02:11:58.963Z,6.76
2022-11-09T02:14:25.343Z,7.44
2022-11-09T02:19:41.885Z,7.35
2022-11-09T02:22:08.256Z,8.32
2022-11-09T02:24:34.634Z,6.83
2022-11-09T02:29:56.637Z,5.32
2022-11-09T02:32:23.027Z,5.34
2022-11-09T02:34:49.404Z,5.40
2022-11-09T02:37:15.785Z,5.79
2022-11-09T02:39:42.182Z,5.84
2022-11-09T02:42:10.494Z,5.25
2022-11-09T02:44:59.207Z,5.25
2022-11-09T02:47:25.584Z,5.07
2022-11-09T02:49:51.968Z,5.32
2022-11-09T02:52:18.354Z,5.33
2022-11-09T03:17:19.969Z,5.86
2022-11-09T03:22:36.611Z,4.79
2022-11-09T03:27:52.928Z,4.94
2022-11-09T03:30:19.316Z,5.13
2022-11-09T03:32:53.764Z,4.81
2022-11-09T03:35:20.146Z,4.48
2022-11-09T03:37:46.534Z,4.56
2022-11-09T03:45:46.739Z,4.93
2022-11-09T03:48:13.111Z,4.73
2022-11-09T03:56:14.184Z,4.84
2022-11-09T03:58:40.565Z,4.72
2022-11-09T04:01:06.942Z,4.72
2022-11-09T04:03:33.334Z,5.09
2022-11-09T04:06:10.097Z,4.80
2022-11-09T04:11:27.147Z,4.74
2022-11-09T04:13:53.538Z,4.74
2022-11-09T04:16:19.970Z,4.35
2022-11-09T04:18:46.339Z,4.55
2022-11-09T04:21:12.720Z,4.31
2022-11-09T04:23:39.081Z,4.67
2022-11-09T04:26:05.512Z,4.53
2022-11-09T04:31:25.558Z,4.35
2022-11-09T04:33:54.332Z,4.01
2022-11-09T04:36:20.715Z,3.93
2022-11-09T04:38:47.077Z,3.54
2022-11-09T05:06:45.307Z,2.54
2022-11-09T05:09:11.741Z,2.41
2022-11-09T05:11:38.188Z,2.64
2022-11-09T05:14:04.572Z,2.79
2022-11-09T05:19:21.057Z,2.58
2022-11-09T05:21:47.469Z,2.69
2022-11-09T05:26:57.599Z,2.47
2022-11-09T05:29:24.075Z,2.43
2022-11-09T05:31:52.443Z,2.48
2022-11-09T05:34:19.046Z,2.64
2022-11-09T05:36:45.460Z,2.81
2022-11-09T05:39:12.038Z,2.72
2022-11-09T05:41:38.430Z,2.69
2022-11-09T05:44:13.900Z,2.94
2022-11-09T05:46:40.303Z,2.85
2022-11-09T05:49:06.674Z,2.81
2022-11-09T05:51:33.037Z,2.51
2022-11-09T05:59:39.843Z,2.69
2022-11-09T06:02:06.255Z,3.37
2022-11-09T06:04:32.625Z,7.55
2022-11-09T06:06:59.063Z,9.07
2022-11-09T06:09:25.445Z,10.21
2022-11-09T06:14:41.841Z,10.97
2022-11-09T06:17:08.229Z,11.65
2022-11-09T06:19:34.737Z,12.55
2022-11-09T06:22:01.098Z,11.94
2022-11-09T06:27:18.132Z,11.68
2022-11-09T06:29:47.184Z,11.68
2022-11-09T06:32:13.555Z,12.07
2022-11-09T06:37:30.152Z,12.65
2022-11-09T06:39:56.534Z,12.20
2022-11-09T06:45:13.097Z,14.33
2022-11-09T06:47:39.468Z,14.40
2022-11-09T06:50:05.845Z,15.80
2022-11-09T06:52:32.227Z,17.15
2022-11-09T06:54:58.626Z,17.89
2022-11-09T06:57:25.014Z,16.57
2022-11-09T06:59:51.395Z,15.50
2022-11-09T07:02:17.892Z,15.61
2022-11-09T07:13:10.027Z,16.43
2022-11-09T07:15:36.294Z,16.83
2022-11-09T07:18:02.551Z,18.22
2022-11-09T07:20:28.808Z,17.32
2022-11-09T07:22:55.090Z,17.29
2022-11-09T07:25:21.356Z,17.25
2022-11-09T07:27:47.677Z,16.31
2022-11-09T07:30:14.005Z,16.25
2022-11-09T07:33:07.515Z,15.96
2022-11-09T07:35:26.630Z,16.80
2022-11-09T07:37:52.910Z,15.99
2022-11-09T07:40:19.180Z,14.32
2022-11-09T07:42:45.434Z,13.80
2022-11-09T07:45:11.689Z,14.02
2022-11-09T07:47:37.947Z,14.00
2022-11-09T07:50:04.215Z,13.70
2022-11-09T07:52:30.567Z,12.03
2022-11-09T07:54:56.816Z,11.61
2022-11-09T07:57:23.072Z,11.25
2022-11-09T07:59:49.346Z,10.83
2022-11-09T08:02:16.311Z,10.70
2022-11-09T08:04:42.631Z,11.45
2022-11-09T08:07:08.955Z,11.23
2022-11-09T08:09:35.285Z,11.04
2022-11-09T08:12:01.536Z,10.67
2022-11-09T08:14:27.793Z,10.45
2022-11-09T08:16:54.048Z,10.38
2022-11-09T08:19:20.325Z,10.71
2022-11-09T08:21:46.575Z,10.35
2022-11-09T08:24:12.834Z,10.67
2022-11-09T08:26:39.105Z,10.96
2022-11-09T08:29:05.356Z,10.93
2022-11-09T08:31:31.617Z,11.34
2022-11-09T08:33:57.973Z,10.94
2022-11-09T08:36:24.222Z,9.61
2022-11-09T08:38:50.472Z,9.94
2022-11-09T08:41:16.736Z,10.89
2022-11-09T08:43:42.984Z,10.56
2022-11-09T08:46:09.317Z,10.24
2022-11-09T08:48:36.140Z,10.03
2022-11-09T08:51:02.405Z,10.15
2022-11-09T08:53:28.657Z,9.85
2022-11-09T08:55:54.924Z,9.79
2022-11-09T08:58:21.412Z,9.94
2022-11-09T09:00:47.930Z,9.21
2022-11-09T09:03:14.193Z,9.27
2022-11-09T09:05:40.457Z,9.70
2022-11-09T09:08:06.707Z,9.57
2022-11-09T09:10:32.965Z,9.45
2022-11-09T09:12:59.210Z,9.21
2022-11-09T09:15:25.473Z,9.29
2022-11-09T09:17:51.735Z,9.29
2022-11-09T09:20:18.005Z,9.98
2022-11-09T09:22:44.359Z,9.94
2022-11-09T09:25:10.608Z,9.85
2022-11-09T09:27:36.855Z,9.46
2022-11-09T09:30:03.125Z,10.08
2022-11-09T09:32:29.384Z,9.42
2022-11-09T09:34:55.630Z,10.06
2022-11-09T09:37:21.882Z,9.15
2022-11-09T09:39:48.146Z,9.15
2022-11-09T09:42:14.410Z,9.38
2022-11-09T09:44:40.664Z,9.43
2022-11-09T09:47:06.915Z,9.23
2022-11-09T09:49:33.169Z,8.79
2022-11-09T09:51:59.428Z,9.15
2022-11-09T09:54:25.685Z,9.31
2022-11-09T09:56:51.944Z,9.87
2022-11-09T09:59:18.195Z,8.89
2022-11-09T10:01:44.446Z,8.75
2022-11-09T10:04:10.732Z,9.26
2022-11-09T10:06:37.157Z,10.00
2022-11-09T10:09:03.499Z,9.79
2022-11-09T10:11:30.865Z,9.09
2022-11-09T10:13:57.125Z,9.14
2022-11-09T10:16:23.377Z,8.64
2022-11-09T10:18:49.638Z,9.00
2022-11-09T10:21:15.895Z,9.52
2022-11-09T10:23:42.156Z,8.54
2022-11-09T10:26:14.458Z,9.02
2022-11-09T10:29:13.749Z,9.00
2022-11-09T10:31:28.155Z,8.98
2022-11-09T10:33:54.401Z,8.77
2022-11-09T10:36:20.638Z,8.23
2022-11-09T10:38:46.887Z,8.29
2022-11-09T10:41:13.157Z,8.97
2022-11-09T10:43:39.412Z,9.37
2022-11-09T10:46:05.686Z,8.56
2022-11-09T10:48:31.973Z,8.30
2022-11-09T10:50:58.211Z,7.91
2022-11-09T10:53:24.452Z,7.98
2022-11-09T10:55:50.701Z,7.61
2022-11-09T10:58:17.060Z,7.68
2022-11-09T11:00:43.429Z,7.27
2022-11-09T11:03:09.757Z,7.10
2022-11-09T11:05:36.021Z,7.45
2022-11-09T11:08:02.298Z,7.16
2022-11-09T11:10:28.554Z,6.57
2022-11-09T11:12:54.809Z,6.29
2022-11-09T11:15:21.062Z,6.54
2022-11-09T11:17:47.315Z,6.81
2022-11-09T11:20:13.560Z,7.70
2022-11-09T11:22:39.817Z,7.66
2022-11-09T11:25:06.064Z,7.00
2022-11-09T11:27:32.334Z,7.02
2022-11-09T11:29:58.595Z,6.93
2022-11-09T11:32:25.200Z,6.59
2022-11-09T11:35:00.107Z,6.27
2022-11-09T11:37:27.475Z,6.07
2022-11-09T11:39:53.724Z,5.82
2022-11-09T11:42:19.985Z,6.15
2022-11-09T11:44:52.676Z,6.23
2022-11-09T11:47:23.082Z,6.80
2022-11-09T11:49:49.338Z,7.37
2022-11-09T11:52:15.595Z,7.71
2022-11-09T11:54:41.862Z,7.04
2022-11-09T11:57:08.107Z,6.59
2022-11-09T11:59:34.349Z,6.94
2022-11-09T12:02:00.615Z,7.14
2022-11-09T12:04:30.956Z,7.31
2022-11-09T12:06:58.503Z,7.32
2022-11-09T12:09:24.781Z,6.95
2022-11-09T12:11:51.085Z,6.62
2022-11-09T12:14:17.350Z,5.48
2022-11-09T12:16:43.601Z,4.69
2022-11-09T12:19:09.840Z,4.95
2022-11-09T12:21:36.096Z,4.96
2022-11-09T12:24:02.339Z,5.61
2022-11-09T12:26:28.591Z,6.93
2022-11-09T12:28:54.840Z,7.18
2022-11-09T12:31:21.100Z,6.60
2022-11-09T12:33:47.356Z,6.08
2022-11-09T12:36:13.925Z,5.67
2022-11-09T12:41:30.882Z,4.64
2022-11-09T12:43:57.142Z,3.71
2022-11-09T12:46:23.389Z,3.60
2022-11-09T12:48:49.649Z,3.51
2022-11-09T12:51:15.910Z,3.40
2022-11-09T12:53:42.152Z,2.59
2022-11-09T12:56:08.392Z,1.76
2022-11-09T12:58:34.653Z,1.74
2022-11-09T13:01:00.900Z,1.49
2022-11-09T13:03:27.158Z,1.71
2022-11-09T13:05:56.239Z,1.76
2022-11-09T13:08:26.119Z,2.25
2022-11-09T13:10:52.375Z,2.27
2022-11-09T13:13:18.993Z,1.85
2022-11-09T13:18:37.046Z,1.85
2022-11-09T13:24:00.941Z,1.69
2022-11-09T13:26:28.135Z,1.67
2022-11-09T13:28:54.374Z,1.47
2022-11-09T13:31:20.621Z,1.64
2022-11-09T13:33:46.901Z,1.56
2022-11-09T13:36:13.147Z,1.60
2022-11-09T13:38:39.405Z,1.58
2022-11-09T13:41:05.750Z,1.69
2022-11-09T13:43:32.013Z,1.92
2022-11-09T13:45:58.264Z,1.99
2022-11-09T13:48:24.521Z,1.92
2022-11-09T14:07:31.067Z,1.86
2022-11-09T14:10:05.517Z,1.85
2022-11-09T14:12:31.906Z,1.72
2022-11-09T14:14:58.150Z,1.55
2022-11-09T14:17:24.394Z,1.71
2022-11-09T14:19:50.662Z,1.77
2022-11-09T14:22:16.928Z,1.76
2022-11-09T14:24:43.419Z,1.45
2022-11-09T14:27:09.676Z,1.28
2022-11-09T14:29:35.984Z,1.42
2022-11-09T14:32:02.242Z,1.30
2022-11-09T14:34:28.505Z,1.52
2022-11-09T14:36:54.809Z,1.61
2022-11-09T14:42:11.278Z,1.33
2022-11-09T14:44:37.531Z,1.58
2022-11-09T14:47:03.774Z,1.57
2022-11-09T14:57:53.786Z,0.85
2022-11-09T15:00:20.025Z,0.81
2022-11-09T15:02:46.319Z,0.75
2022-11-09T15:05:12.562Z,0.75
2022-11-09T15:07:38.843Z,0.82
2022-11-09T15:10:05.101Z,0.80
2022-11-09T15:12:31.360Z,0.68
2022-11-09T15:14:57.630Z,0.78
2022-11-09T15:17:23.885Z,1.05
2022-11-09T15:19:50.119Z,0.94
2022-11-09T15:22:16.366Z,1.14
2022-11-09T15:24:46.171Z,1.47
2022-11-09T15:27:12.646Z,1.66
2022-11-09T15:29:38.907Z,1.65
2022-11-09T15:32:09.420Z,1.79
2022-11-09T15:45:55.858Z,2.00
2022-11-09T15:48:22.687Z,1.86
2022-11-09T15:50:49.284Z,1.81
2022-11-09T15:53:15.537Z,1.97
2022-11-09T15:55:41.791Z,4.28
2022-11-09T15:58:08.041Z,5.00
2022-11-09T16:00:34.350Z,2.66
2022-11-09T16:03:00.643Z,2.56
2022-11-09T16:05:26.883Z,2.33
2022-11-09T16:07:53.125Z,2.35
2022-11-09T16:10:19.380Z,2.46
2022-11-09T16:12:46.553Z,2.32
2022-11-09T16:15:12.940Z,2.50
2022-11-09T16:17:39.198Z,2.71
2022-11-09T16:20:05.468Z,2.91
2022-11-09T16:22:31.715Z,3.13
2022-11-09T16:24:57.951Z,2.82
2022-11-09T16:30:10.450Z,3.67
2022-11-09T16:32:36.719Z,3.30
2022-11-09T16:35:25.548Z,2.81
2022-11-09T16:37:49.201Z,1.86
2022-11-09T16:40:15.452Z,1.86
2022-11-09T16:45:33.214Z,1.74
2022-11-09T16:48:00.174Z,1.65
2022-11-09T16:50:26.486Z,1.70
2022-11-09T16:52:52.732Z,1.64
2022-11-09T16:55:18.988Z,1.73
2022-11-09T16:57:45.243Z,2.58
2022-11-09T17:03:01.810Z,3.25
2022-11-09T17:05:28.065Z,3.13
2022-11-09T17:10:45.259Z,3.99
2022-11-09T17:13:11.510Z,9.84
2022-11-09T17:15:37.746Z,12.32
2022-11-09T17:20:54.036Z,3.78
2022-11-09T17:23:20.289Z,4.05
2022-11-09T17:28:42.940Z,3.11
2022-11-09T17:37:03.697Z,2.13
2022-11-09T17:39:30.792Z,2.43
2022-11-09T17:41:57.049Z,3.77
2022-11-09T17:44:23.316Z,3.25
2022-11-09T17:46:49.569Z,5.02
2022-11-09T17:49:15.860Z,15.86
2022-11-09T17:51:42.108Z,21.36
2022-11-09T17:54:08.372Z,22.97
2022-11-09T17:56:34.627Z,18.27
2022-11-09T17:59:00.866Z,9.53
2022-11-09T18:01:27.174Z,20.34
2022-11-09T18:06:44.472Z,39.38
2022-11-09T18:09:39.825Z,45.73
2022-11-09T18:14:46.920Z,40.71
2022-11-09T18:20:03.402Z,18.70
2022-11-09T18:22:29.654Z,9.07
2022-11-09T18:27:39.666Z,19.22
2022-11-09T18:30:05.910Z,13.82
2022-11-09T18:35:13.788Z,6.80
2022-11-09T18:37:40.029Z,6.27
2022-11-09T18:40:06.272Z,3.70
2022-11-09T18:42:32.520Z,4.85
2022-11-09T18:44:58.777Z,3.67
2022-11-09T18:47:25.092Z,3.87
2022-11-09T18:49:51.336Z,2.70
2022-11-09T18:52:17.591Z,2.98
2022-11-09T18:54:43.928Z,2.46
2022-11-09T18:57:10.622Z,1.78
2022-11-09T18:59:36.896Z,1.83
2022-11-09T19:02:03.171Z,1.77
2022-11-09T19:04:29.415Z,2.26
2022-11-09T19:15:19.171Z,2.82
2022-11-09T19:20:27.099Z,2.59
2022-11-09T19:22:59.767Z,2.29
2022-11-09T19:25:26.017Z,2.00
2022-11-09T19:27:52.263Z,1.89
2022-11-09T19:35:52.725Z,2.78
2022-11-09T19:38:28.257Z,3.55
2022-11-09T19:40:54.511Z,3.83
2022-11-09T19:43:21.112Z,3.66
2022-11-09T19:45:47.607Z,4.23
2022-11-09T19:48:13.845Z,3.95
2022-11-09T19:50:40.086Z,3.84
2022-11-09T19:53:06.351Z,4.07
2022-11-09T19:55:32.591Z,3.92
2022-11-09T19:57:58.825Z,4.07
2022-11-09T20:00:25.065Z,4.36
2022-11-09T20:02:51.324Z,4.33
2022-11-09T20:13:42.005Z,5.01
2022-11-09T20:16:08.273Z,9.19
2022-11-09T20:18:34.668Z,7.72
2022-11-09T20:21:00.944Z,13.64
2022-11-09T20:23:27.207Z,10.18
2022-11-09T20:25:53.565Z,8.20
2022-11-09T20:28:20.210Z,11.69
2022-11-09T20:30:46.897Z,8.30
2022-11-09T20:33:13.140Z,6.07
2022-11-09T20:35:42.996Z,9.01
2022-11-09T20:38:12.935Z,16.29
2022-11-09T20:40:39.210Z,19.22
2022-11-09T20:43:05.476Z,18.46
2022-11-09T20:45:31.730Z,9.96
2022-11-09T20:48:10.463Z,8.24
2022-11-09T20:50:40.827Z,9.84
2022-11-09T20:53:07.070Z,9.25
2022-11-09T20:55:33.314Z,8.57
2022-11-09T20:57:59.583Z,8.10
2022-11-09T21:00:25.827Z,7.75
2022-11-09T21:02:52.083Z,10.74
2022-11-09T21:05:18.339Z,11.92
2022-11-09T21:07:44.591Z,10.94
2022-11-09T21:10:10.836Z,10.23
2022-11-09T21:12:37.094Z,10.82
2022-11-09T21:15:03.344Z,12.18
2022-11-09T21:17:29.591Z,14.74
2022-11-09T21:19:55.870Z,23.94
2022-11-09T21:22:22.115Z,33.15
2022-11-09T21:24:48.375Z,34.76
2022-11-09T21:27:14.629Z,18.46
2022-11-09T21:29:40.885Z,15.18
2022-11-09T21:32:07.166Z,29.14
2022-11-09T21:34:36.757Z,25.75
2022-11-09T21:37:03.502Z,16.89
2022-11-09T21:39:29.757Z,12.78
2022-11-09T21:41:56.005Z,13.54
2022-11-09T21:44:22.261Z,19.99
2022-11-09T21:46:48.514Z,17.82
2022-11-09T21:49:14.782Z,13.17
2022-11-09T21:51:41.029Z,11.92
2022-11-09T21:54:07.288Z,12.60
2022-11-09T21:56:33.541Z,12.15
2022-11-09T21:58:59.785Z,11.14
2022-11-09T22:01:26.099Z,12.13
2022-11-09T22:03:52.371Z,25.85
2022-11-09T22:06:18.637Z,20.62
2022-11-09T22:08:44.912Z,20.17
2022-11-09T22:11:11.221Z,18.81
2022-11-09T22:13:37.543Z,15.38
2022-11-09T22:16:03.804Z,14.73
2022-11-09T22:18:30.067Z,15.68
2022-11-09T22:20:56.324Z,15.09
2022-11-09T22:23:22.886Z,13.93
2022-11-09T22:25:49.475Z,12.27
2022-11-09T22:28:15.718Z,12.07
2022-11-09T22:30:41.977Z,12.68
2022-11-09T22:33:08.234Z,13.50
2022-11-09T22:35:34.482Z,13.23
2022-11-09T22:38:00.753Z,12.67
2022-11-09T22:40:27.049Z,12.42
2022-11-09T22:42:53.306Z,11.46
2022-11-09T22:45:19.563Z,11.16
2022-11-09T22:47:45.824Z,10.85
2022-11-09T22:50:12.076Z,10.80
2022-11-09T22:52:38.336Z,10.22
2022-11-09T22:55:04.600Z,10.22
2022-11-09T22:57:30.883Z,10.61
2022-11-09T22:59:57.152Z,10.92
2022-11-09T23:02:23.411Z,10.98
2022-11-09T23:04:49.673Z,11.12
2022-11-09T23:07:15.956Z,11.23
2022-11-09T23:09:42.220Z,10.89
2022-11-09T23:12:08.479Z,10.96
2022-11-09T23:14:34.741Z,11.20
2022-11-09T23:17:01.008Z,10.60
2022-11-09T23:19:27.262Z,11.45
2022-11-09T23:21:53.521Z,12.01
2022-11-09T23:24:19.781Z,11.46
2022-11-09T23:26:46.041Z,11.16
2022-11-09T23:29:12.321Z,10.94
2022-11-09T23:31:38.571Z,11.38
2022-11-09T23:34:09.777Z,10.80
2022-11-09T23:36:36.364Z,10.77
2022-11-09T23:39:02.620Z,10.27
2022-11-09T23:41:28.872Z,10.34
2022-11-09T23:43:55.138Z,10.24
2022-11-09T23:46:21.487Z,10.38
2022-11-09T23:48:47.734Z,9.88
2022-11-09T23:51:13.988Z,9.98
2022-11-09T23:53:40.254Z,9.71
2022-11-09T23:56:06.495Z,9.56
2022-11-09T23:58:32.751Z,9.68
